Time;durP1;ratioP1;P1;durP2;ratioP2;P2;SDS_P1;SDS_P2;PMS_P1;PMS_P2;Temp;Humidity;BMP_temperature;BMP_pressure;BME280_temperature;BME280_humidity;BME280_pressure;Samples;Min_cycle;Max_cycle;Signal;HPM_P1;HPM_P2
2023/04/03 00:01:15;;;;;;;2.67;2.47;;;4.50;99.90;;;;;;5023880;28;20879;-68
2023/04/03 00:03:42;;;;;;;3.80;2.50;;;4.60;99.90;;;;;;5013057;28;20460;-68
2023/04/03 00:06:11;;;;;;;4.43;2.70;;;4.50;99.90;;;;;;5025030;28;20472;-68
2023/04/03 00:08:40;;;;;;;2.50;2.30;;;4.50;99.90;;;;;;5032656;28;20461;-68
2023/04/03 00:11:07;;;;;;;2.40;2.20;;;4.50;99.90;;;;;;5033196;28;20447;-68
2023/04/03 00:13:34;;;;;;;4.93;2.57;;;4.50;99.90;;;;;;5032650;28;21010;-68
2023/04/03 00:16:01;;;;;;;5.13;2.50;;;4.40;99.90;;;;;;5032282;28;20529;-68
2023/04/03 00:18:28;;;;;;;3.23;2.60;;;4.40;99.90;;;;;;5030258;28;20508;-68
2023/04/03 00:20:54;;;;;;;4.53;2.67;;;4.40;99.90;;;;;;5032923;28;20487;-68
2023/04/03 00:23:23;;;;;;;3.23;2.30;;;4.40;99.90;;;;;;5032598;28;20466;-68
2023/04/03 00:25:51;;;;;;;3.90;2.40;;;4.40;99.90;;;;;;5030506;28;21014;-68
2023/04/03 00:28:18;;;;;;;8.93;2.30;;;4.40;99.90;;;;;;5012960;28;20835;-68
2023/04/03 00:30:44;;;;;;;2.57;2.07;;;4.30;99.90;;;;;;5019754;28;20505;-68
2023/04/03 00:33:12;;;;;;;1.90;1.80;;;4.40;99.90;;;;;;5013658;28;20511;-68
2023/04/03 00:35:39;;;;;;;3.33;2.20;;;4.40;99.90;;;;;;5012827;28;20471;-68
2023/04/03 00:38:06;;;;;;;6.83;2.23;;;4.40;99.90;;;;;;5012719;28;20504;-68
2023/04/03 00:40:36;;;;;;;2.27;2.07;;;4.40;99.90;;;;;;5028422;28;20491;-68
2023/04/03 00:43:12;;;;;;;4.50;2.80;;;4.40;99.90;;;;;;5012753;28;20482;-68
2023/04/03 00:45:40;;;;;;;4.60;2.07;;;4.40;99.90;;;;;;5030017;28;20486;-68
2023/04/03 00:48:12;;;;;;;5.10;2.20;;;4.40;99.90;;;;;;5032258;28;20457;-68
2023/04/03 00:50:43;;;;;;;2.40;2.20;;;4.40;99.90;;;;;;5031621;28;20480;-68
2023/04/03 00:53:14;;;;;;;2.40;2.20;;;4.40;99.90;;;;;;5031650;28;20455;-68
2023/04/03 00:55:42;;;;;;;3.30;2.10;;;4.40;99.90;;;;;;5032322;28;20471;-68
2023/04/03 00:58:11;;;;;;;5.40;2.20;;;4.40;99.90;;;;;;5032019;28;21064;-68
2023/04/03 01:00:41;;;;;;;3.33;2.07;;;4.40;99.90;;;;;;5031743;28;20491;-68
2023/04/03 01:03:08;;;;;;;5.40;2.30;;;4.40;99.90;;;;;;5012262;28;20947;-68
2023/04/03 01:05:35;;;;;;;2.13;1.90;;;4.40;99.90;;;;;;5027507;28;21163;-68
2023/04/03 01:08:02;;;;;;;6.70;2.13;;;4.40;99.90;;;;;;5032000;28;20447;-68
2023/04/03 01:10:29;;;;;;;3.90;2.40;;;4.40;99.90;;;;;;5031729;28;20528;-68
2023/04/03 01:12:56;;;;;;;3.10;1.93;;;4.50;99.90;;;;;;5029078;28;20554;-68
2023/04/03 01:15:26;;;;;;;6.30;2.20;;;4.50;99.90;;;;;;5012345;28;20467;-68
2023/04/03 01:17:56;;;;;;;3.67;2.10;;;4.40;99.90;;;;;;5018241;28;20451;-68
2023/04/03 01:20:51;;;;;;;4.93;1.87;;;4.40;99.90;;;;;;5032057;28;20483;-68
2023/04/03 01:23:30;;;;;;;3.83;2.10;;;4.40;99.90;;;;;;5027712;28;20458;-68
2023/04/03 01:25:58;;;;;;;9.07;2.60;;;4.40;99.90;;;;;;5031256;28;20999;-68
2023/04/03 01:28:27;;;;;;;5.00;1.90;;;4.40;99.90;;;;;;5031535;28;20514;-68
2023/04/03 01:31:01;;;;;;;2.63;1.93;;;4.40;99.90;;;;;;5031767;28;20448;-68
2023/04/03 01:33:30;;;;;;;2.50;2.00;;;4.40;99.90;;;;;;5017588;28;21017;-68
2023/04/03 01:35:57;;;;;;;4.93;2.17;;;4.40;99.90;;;;;;5011849;28;20468;-68
2023/04/03 01:38:24;;;;;;;2.90;2.10;;;4.30;99.90;;;;;;5015387;28;20499;-68
2023/04/03 01:40:50;;;;;;;8.00;1.93;;;4.30;99.90;;;;;;5011760;28;20574;-68
2023/04/03 01:43:17;;;;;;;4.00;2.20;;;4.20;99.90;;;;;;5011762;28;20509;-68
2023/04/03 01:45:44;;;;;;;5.47;2.00;;;4.10;99.90;;;;;;5025626;28;20528;-68
2023/04/03 01:48:11;;;;;;;4.00;1.97;;;4.10;99.90;;;;;;5030196;28;20450;-68
2023/04/03 01:50:39;;;;;;;3.13;1.93;;;4.00;99.90;;;;;;5030535;28;20450;-68
2023/04/03 01:53:06;;;;;;;5.80;2.10;;;4.10;99.90;;;;;;5030338;28;20478;-68
2023/04/03 01:55:32;;;;;;;3.63;1.87;;;4.00;99.90;;;;;;5031666;28;20520;-68
2023/04/03 01:57:59;;;;;;;7.40;1.97;;;4.10;99.90;;;;;;5031351;28;20454;-68
2023/04/03 02:00:26;;;;;;;4.70;2.10;;;4.00;99.90;;;;;;5031176;28;20552;-68
2023/04/03 02:02:53;;;;;;;4.70;2.10;;;4.10;99.90;;;;;;5031187;28;20955;-68
2023/04/03 02:05:20;;;;;;;3.43;2.07;;;4.00;99.90;;;;;;5030512;28;20889;-68
2023/04/03 02:07:48;;;;;;;2.00;1.90;;;4.10;99.90;;;;;;5021934;28;20463;-68
2023/04/03 02:10:15;;;;;;;5.10;2.20;;;4.10;99.90;;;;;;5016547;28;20450;-68
2023/04/03 02:12:41;;;;;;;2.87;1.80;;;4.10;99.90;;;;;;5011488;28;21019;-68
2023/04/03 02:15:09;;;;;;;3.40;1.90;;;4.10;99.90;;;;;;5019325;28;20466;-68
2023/04/03 02:17:36;;;;;;;7.87;2.20;;;4.00;99.90;;;;;;5015840;28;20451;-68
2023/04/03 02:20:03;;;;;;;7.63;1.93;;;4.00;99.90;;;;;;5030458;28;20454;-68
2023/04/03 02:22:29;;;;;;;9.20;2.53;;;4.10;99.90;;;;;;5031229;28;20458;-68
2023/04/03 02:24:57;;;;;;;3.80;1.97;;;4.10;99.90;;;;;;5030952;28;20528;-68
2023/04/03 02:27:25;;;;;;;3.13;2.10;;;4.00;99.90;;;;;;5031125;28;20458;-68
2023/04/03 02:29:51;;;;;;;4.77;2.10;;;4.00;99.90;;;;;;5012860;28;20474;-67
2023/04/03 02:32:18;;;;;;;4.43;1.60;;;4.00;99.90;;;;;;5011366;28;20453;-68
2023/04/03 02:34:44;;;;;;;2.50;1.93;;;3.90;99.90;;;;;;5028941;28;20481;-68
2023/04/03 02:37:11;;;;;;;7.27;2.30;;;3.90;99.90;;;;;;5031256;28;20512;-68
2023/04/03 02:39:38;;;;;;;5.73;2.00;;;3.80;99.90;;;;;;5031123;28;20446;-68
2023/04/03 02:42:07;;;;;;;8.43;2.57;;;3.70;99.90;;;;;;5026634;28;20492;-68
2023/04/03 02:44:33;;;;;;;6.13;2.30;;;3.60;99.90;;;;;;5017958;28;20938;-68
2023/04/03 02:47:00;;;;;;;3.90;1.97;;;3.60;99.90;;;;;;5030272;28;20497;-68
2023/04/03 02:49:27;;;;;;;3.53;1.83;;;3.60;99.90;;;;;;5030782;28;20939;-68
2023/04/03 02:51:53;;;;;;;5.53;2.00;;;3.50;99.90;;;;;;5012374;28;20451;-68
2023/04/03 02:54:20;;;;;;;5.23;2.17;;;3.50;99.90;;;;;;5017929;28;20453;-68
2023/04/03 02:56:47;;;;;;;3.43;2.17;;;3.40;99.90;;;;;;5029812;28;21002;-68
2023/04/03 02:59:15;;;;;;;8.83;2.50;;;3.30;99.90;;;;;;5011132;28;20451;-68
2023/04/03 03:01:41;;;;;;;6.77;2.60;;;3.30;99.90;;;;;;5010945;28;20494;-68
2023/04/03 03:04:08;;;;;;;4.90;2.30;;;3.20;99.90;;;;;;5027351;28;20843;-68
2023/04/03 03:06:35;;;;;;;10.33;2.80;;;3.10;99.90;;;;;;5030631;28;21046;-68
2023/04/03 03:09:01;;;;;;;4.40;2.30;;;3.00;99.90;;;;;;5030735;28;20479;-68
2023/04/03 03:11:28;;;;;;;10.17;2.73;;;3.00;99.90;;;;;;5030787;28;20817;-68
2023/04/03 03:13:55;;;;;;;9.50;2.40;;;2.90;99.90;;;;;;5019835;28;20516;-68
2023/04/03 03:16:23;;;;;;;5.97;2.33;;;2.90;99.90;;;;;;5020875;28;20528;-68
2023/04/03 03:18:49;;;;;;;7.23;2.30;;;2.80;99.90;;;;;;5019875;28;20455;-68
2023/04/03 03:21:16;;;;;;;2.40;2.10;;;2.80;99.90;;;;;;5014426;28;20482;-68
2023/04/03 03:23:43;;;;;;;5.20;2.37;;;2.70;99.90;;;;;;5032967;28;20465;-67
2023/04/03 03:26:11;;;;;;;6.60;2.43;;;2.60;99.90;;;;;;5033635;28;20472;-68
2023/04/03 03:28:40;;;;;;;5.30;2.23;;;2.70;99.90;;;;;;5026183;28;20463;-67
2023/04/03 03:31:07;;;;;;;7.90;2.53;;;2.50;99.90;;;;;;5013902;28;20490;-67
2023/04/03 03:33:35;;;;;;;5.97;2.30;;;2.40;99.90;;;;;;5016241;28;20505;-67
2023/04/03 03:36:02;;;;;;;8.30;2.80;;;2.40;99.90;;;;;;5032513;28;20537;-67
2023/04/03 03:38:29;;;;;;;7.60;2.60;;;2.30;99.90;;;;;;5033714;28;20450;-67
2023/04/03 03:40:55;;;;;;;9.00;2.70;;;2.20;99.90;;;;;;5032590;28;20580;-67
2023/04/03 03:43:22;;;;;;;10.50;3.10;;;2.10;99.90;;;;;;5033753;28;20481;-68
2023/04/03 03:45:52;;;;;;;3.20;2.30;;;2.00;99.90;;;;;;5033542;28;20816;-67
2023/04/03 03:48:18;;;;;;;5.80;2.33;;;1.80;99.90;;;;;;5033476;28;20552;-67
2023/04/03 03:50:46;;;;;;;4.73;2.70;;;1.80;99.90;;;;;;5024285;28;20449;-67
2023/04/03 03:53:13;;;;;;;8.10;2.90;;;1.70;99.90;;;;;;5022782;28;20496;-68
2023/04/03 03:55:40;;;;;;;7.90;2.87;;;1.70;99.90;;;;;;5033376;28;20471;-68
2023/04/03 03:58:06;;;;;;;7.40;2.43;;;1.60;99.90;;;;;;5033510;28;20458;-68
2023/04/03 04:00:33;;;;;;;8.20;2.30;;;1.60;99.90;;;;;;5033337;28;20513;-68
2023/04/03 04:03:00;;;;;;;5.87;2.40;;;1.50;99.90;;;;;;5033245;28;20518;-68
2023/04/03 04:05:27;;;;;;;6.00;2.47;;;1.50;99.90;;;;;;5032774;28;20473;-68
2023/04/03 04:07:55;;;;;;;6.30;2.37;;;1.50;99.90;;;;;;5032492;28;20866;-67
2023/04/03 04:10:22;;;;;;;3.63;2.20;;;1.40;99.90;;;;;;5020125;28;20948;-68
2023/04/03 04:12:51;;;;;;;4.43;2.00;;;1.40;99.90;;;;;;5013540;28;20448;-68
2023/04/03 04:15:17;;;;;;;7.53;2.50;;;1.30;99.90;;;;;;5023305;28;20556;-67
2023/04/03 04:17:44;;;;;;;6.00;2.10;;;1.30;99.90;;;;;;5030706;28;20452;-68
2023/04/03 04:20:11;;;;;;;4.73;2.03;;;1.20;99.90;;;;;;5013097;28;20448;-67
2023/04/03 04:22:38;;;;;;;4.50;2.07;;;1.20;99.90;;;;;;5013010;28;20538;-67
2023/04/03 04:25:07;;;;;;;16.83;2.77;;;1.10;99.90;;;;;;5012916;28;20478;-67
2023/04/03 04:27:34;;;;;;;3.80;2.03;;;1.10;99.90;;;;;;5032046;28;20516;-67
2023/04/03 04:30:00;;;;;;;4.00;2.70;;;1.10;99.90;;;;;;5032731;28;20451;-67
2023/04/03 04:32:27;;;;;;;9.00;2.67;;;1.00;99.90;;;;;;5027083;28;20971;-67
2023/04/03 04:34:54;;;;;;;4.13;2.73;;;1.00;99.90;;;;;;5030002;28;20524;-67
2023/04/03 04:37:20;;;;;;;7.67;2.13;;;1.00;99.90;;;;;;5032532;28;20804;-68
2023/04/03 04:39:47;;;;;;;5.30;2.67;;;0.90;99.90;;;;;;5033007;28;20455;-67
2023/04/03 04:42:15;;;;;;;5.63;2.33;;;0.90;99.90;;;;;;5019632;28;20487;-67
2023/04/03 04:44:41;;;;;;;4.93;2.33;;;0.90;99.90;;;;;;5029660;28;20816;-67
2023/04/03 04:47:08;;;;;;;8.83;2.97;;;0.80;99.90;;;;;;5032043;28;20508;-67
2023/04/03 04:49:35;;;;;;;2.60;2.10;;;0.90;99.90;;;;;;5032109;28;20462;-68
2023/04/03 04:52:01;;;;;;;4.10;2.60;;;0.80;99.90;;;;;;5012775;28;20446;-70
2023/04/03 04:54:28;;;;;;;5.53;2.40;;;0.80;99.90;;;;;;5012602;28;20795;-70
2023/04/03 04:56:55;;;;;;;3.63;2.53;;;0.80;99.90;;;;;;5012360;28;20455;-69
2023/04/03 04:59:23;;;;;;;5.43;2.50;;;0.80;99.90;;;;;;5029093;28;20474;-70
2023/04/03 05:01:49;;;;;;;5.97;2.10;;;0.80;99.90;;;;;;5031463;28;20537;-70
2023/04/03 05:04:16;;;;;;;5.27;2.80;;;0.70;99.90;;;;;;5028192;28;20452;-69
2023/04/03 05:06:43;;;;;;;6.40;3.10;;;0.70;99.90;;;;;;5012345;28;20541;-70
2023/04/03 05:09:09;;;;;;;9.90;3.03;;;0.70;99.90;;;;;;5012469;28;20509;-70
2023/04/03 05:11:36;;;;;;;7.10;2.90;;;0.70;99.90;;;;;;5015993;28;20478;-70
2023/04/03 05:14:05;;;;;;;9.53;3.00;;;0.70;99.90;;;;;;5011833;28;20455;-69
2023/04/03 05:16:33;;;;;;;6.70;3.00;;;0.70;99.90;;;;;;5017773;28;20566;-70
2023/04/03 05:18:59;;;;;;;9.73;3.30;;;0.70;99.90;;;;;;5027939;28;20507;-70
2023/04/03 05:21:27;;;;;;;8.77;3.77;;;0.70;99.90;;;;;;5031840;28;20490;-70
2023/04/03 05:23:54;;;;;;;6.30;3.07;;;0.70;99.90;;;;;;5031447;28;20458;-71
2023/04/03 05:26:21;;;;;;;11.60;3.27;;;0.70;99.90;;;;;;5031280;28;20469;-70
2023/04/03 05:28:47;;;;;;;6.60;3.03;;;0.80;99.90;;;;;;5018276;28;20471;-70
2023/04/03 05:31:14;;;;;;;6.60;3.00;;;0.70;99.90;;;;;;5026178;28;20459;-71
2023/04/03 05:33:43;;;;;;;5.70;3.10;;;0.70;99.90;;;;;;5014793;28;20452;-70
2023/04/03 05:36:10;;;;;;;10.93;3.17;;;0.80;99.90;;;;;;5011801;28;20475;-70
2023/04/03 05:38:36;;;;;;;14.10;3.20;;;0.80;99.90;;;;;;5016184;28;21030;-70
2023/04/03 05:41:03;;;;;;;5.70;3.20;;;1.00;99.90;;;;;;5024395;28;20467;-71
2023/04/03 05:43:30;;;;;;;6.80;3.10;;;1.30;99.90;;;;;;5016866;28;20484;-71
2023/04/03 05:45:56;;;;;;;7.80;3.00;;;1.50;99.90;;;;;;5029717;28;20474;-71
2023/04/03 05:48:23;;;;;;;5.33;3.03;;;1.70;99.90;;;;;;5024585;28;20461;-71
2023/04/03 05:50:52;;;;;;;5.97;3.07;;;1.90;99.90;;;;;;5023787;28;20463;-71
2023/04/03 05:53:22;;;;;;;8.60;3.33;;;2.10;99.90;;;;;;5020562;28;20451;-71
2023/04/03 05:55:48;;;;;;;9.97;3.40;;;2.30;99.90;;;;;;5029002;28;20485;-71
2023/04/03 05:58:15;;;;;;;6.40;3.20;;;2.50;99.90;;;;;;5030891;28;20445;-71
2023/04/03 06:00:42;;;;;;;6.80;2.77;;;2.80;99.90;;;;;;5030709;28;20506;-71
2023/04/03 06:03:08;;;;;;;11.43;3.30;;;2.80;99.90;;;;;;5030838;28;20492;-71
2023/04/03 06:05:36;;;;;;;7.20;3.47;;;3.00;99.90;;;;;;5016693;28;20481;-71
2023/04/03 06:08:04;;;;;;;5.03;3.60;;;3.00;99.90;;;;;;5011478;28;20543;-71
2023/04/03 06:10:30;;;;;;;7.77;3.37;;;3.30;99.90;;;;;;5029546;28;20464;-71
2023/04/03 06:12:57;;;;;;;8.50;2.80;;;3.40;99.90;;;;;;5031053;28;20445;-71
2023/04/03 06:15:24;;;;;;;11.57;3.67;;;3.70;99.90;;;;;;5030904;28;20481;-71
2023/04/03 06:17:51;;;;;;;5.97;3.00;;;4.00;99.90;;;;;;5024345;28;20463;-71
2023/04/03 06:20:18;;;;;;;6.17;3.40;;;4.30;99.90;;;;;;5027927;28;20930;-72
2023/04/03 06:22:44;;;;;;;5.37;2.87;;;4.50;99.90;;;;;;5030917;28;20841;-71
2023/04/03 06:25:12;;;;;;;8.87;3.70;;;4.30;99.90;;;;;;5030713;28;20482;-72
2023/04/03 06:27:39;;;;;;;8.90;3.40;;;4.40;99.90;;;;;;5028486;28;20466;-71
2023/04/03 06:30:07;;;;;;;7.20;3.60;;;4.50;99.90;;;;;;5030444;28;20527;-71
2023/04/03 06:32:34;;;;;;;6.77;3.30;;;4.50;99.90;;;;;;5016858;28;21005;-71
2023/04/03 06:35:01;;;;;;;7.73;4.23;;;4.60;99.90;;;;;;5012766;28;20498;-72
2023/04/03 06:37:28;;;;;;;14.13;3.90;;;4.80;99.90;;;;;;5022620;28;20463;-70
2023/04/03 06:39:55;;;;;;;8.97;3.77;;;4.80;99.90;;;;;;5018144;28;20459;-71
2023/04/03 06:42:23;;;;;;;5.67;3.60;;;5.20;99.90;;;;;;5025865;28;21033;-71
2023/04/03 06:44:50;;;;;;;9.67;3.70;;;5.10;99.90;;;;;;5024649;28;20474;-71
2023/04/03 06:47:17;;;;;;;9.50;3.90;;;4.70;99.90;;;;;;5026196;28;20716;-71
2023/04/03 06:49:45;;;;;;;16.40;4.00;;;4.60;99.90;;;;;;5026121;28;20460;-71
2023/04/03 06:52:12;;;;;;;6.30;3.90;;;4.80;99.90;;;;;;5029032;28;20446;-70
2023/04/03 06:54:39;;;;;;;4.93;3.43;;;5.00;99.90;;;;;;5030057;28;20456;-70
2023/04/03 06:57:06;;;;;;;5.33;3.57;;;5.20;99.90;;;;;;5029394;28;20457;-70
2023/04/03 06:59:34;;;;;;;9.20;3.87;;;5.40;99.90;;;;;;5029090;28;20454;-70
2023/04/03 07:02:01;;;;;;;6.00;3.90;;;5.60;99.90;;;;;;5029937;28;20497;-71
2023/04/03 07:04:28;;;;;;;6.90;3.80;;;5.60;99.90;;;;;;5030220;28;20449;-71
2023/04/03 07:06:54;;;;;;;7.47;3.53;;;5.50;99.90;;;;;;5030427;28;20442;-71
2023/04/03 07:09:21;;;;;;;7.67;3.97;;;5.40;99.90;;;;;;5029950;28;20458;-71
2023/04/03 07:11:47;;;;;;;7.27;3.53;;;5.50;99.90;;;;;;5029116;28;20524;-71
2023/04/03 07:14:14;;;;;;;6.53;3.70;;;5.80;99.90;;;;;;5028923;28;20446;-72
2023/04/03 07:16:42;;;;;;;12.10;3.93;;;5.90;99.90;;;;;;5030632;28;20509;-71
2023/04/03 07:19:09;;;;;;;3.40;3.00;;;5.90;99.90;;;;;;5029508;28;20453;-71
2023/04/03 07:21:36;;;;;;;7.20;3.60;;;5.90;99.90;;;;;;5029196;28;20455;-71
2023/04/03 07:24:03;;;;;;;5.23;3.00;;;5.70;99.90;;;;;;5028936;28;20462;-68
2023/04/03 07:26:30;;;;;;;18.40;3.63;;;6.10;99.90;;;;;;5029325;28;20470;-68
2023/04/03 07:28:57;;;;;;;9.60;3.57;;;7.20;99.90;;;;;;5029273;28;20471;-72
2023/04/03 07:31:25;;;;;;;7.50;3.87;;;8.00;99.90;;;;;;5029265;28;20505;-71
2023/04/03 07:33:53;;;;;;;6.93;3.90;;;8.00;99.90;;;;;;5029661;28;20469;-72
2023/04/03 07:36:21;;;;;;;6.43;3.90;;;7.70;99.90;;;;;;5028810;28;20537;-72
2023/04/03 07:38:47;;;;;;;10.50;3.30;;;6.60;99.90;;;;;;5029293;28;20882;-71
2023/04/03 07:41:17;;;;;;;8.23;3.53;;;6.20;99.90;;;;;;5029935;28;20469;-72
2023/04/03 07:43:44;;;;;;;5.23;3.07;;;5.80;99.90;;;;;;5028981;28;20510;-71
2023/04/03 07:46:11;;;;;;;6.00;3.73;;;5.70;99.90;;;;;;5028791;28;20564;-71
2023/04/03 07:48:38;;;;;;;6.50;3.30;;;5.90;99.90;;;;;;5029767;28;20445;-71
2023/04/03 07:51:06;;;;;;;6.73;2.97;;;6.00;99.90;;;;;;5027914;28;20462;-71
2023/04/03 07:53:33;;;;;;;13.70;3.77;;;6.10;99.90;;;;;;5029326;28;20505;-71
2023/04/03 07:56:02;;;;;;;4.97;3.43;;;6.10;99.90;;;;;;5028028;28;20477;-71
2023/04/03 07:58:29;;;;;;;3.70;2.50;;;6.10;99.90;;;;;;5028965;28;20877;-71
2023/04/03 08:00:56;;;;;;;10.50;3.30;;;6.00;99.90;;;;;;5026574;28;20462;-72
2023/04/03 08:03:22;;;;;;;8.37;3.70;;;6.10;99.90;;;;;;5027054;28;21883;-72
2023/04/03 08:05:50;;;;;;;8.20;3.27;;;6.30;99.90;;;;;;5029451;28;20462;-71
2023/04/03 08:08:21;;;;;;;7.00;3.50;;;6.50;99.90;;;;;;5029090;28;20494;-72
2023/04/03 08:10:50;;;;;;;3.20;2.90;;;6.50;99.90;;;;;;5029590;28;20543;-72
2023/04/03 08:13:17;;;;;;;11.53;3.40;;;6.60;99.90;;;;;;5028508;28;20452;-71
2023/04/03 08:15:44;;;;;;;10.40;3.53;;;6.80;99.90;;;;;;5028461;28;20984;-71
2023/04/03 08:18:11;;;;;;;3.93;2.97;;;6.70;99.90;;;;;;5026861;28;20540;-71
2023/04/03 08:20:39;;;;;;;6.13;3.00;;;6.90;99.90;;;;;;5028988;28;20446;-71
2023/04/03 08:23:06;;;;;;;8.00;2.90;;;6.80;99.90;;;;;;5028469;28;20496;-72
2023/04/03 08:25:34;;;;;;;4.50;2.70;;;6.80;99.90;;;;;;5028612;28;20733;-70
2023/04/03 08:28:01;;;;;;;3.00;2.70;;;6.80;99.90;;;;;;5027783;28;20963;-71
2023/04/03 08:30:28;;;;;;;3.53;2.63;;;6.80;99.90;;;;;;5027784;28;20533;-71
2023/04/03 08:32:55;;;;;;;7.43;3.17;;;6.90;99.90;;;;;;5028559;28;20472;-70
2023/04/03 08:35:21;;;;;;;4.70;2.33;;;7.20;99.90;;;;;;5027773;28;20998;-70
2023/04/03 08:37:48;;;;;;;5.73;3.00;;;7.30;99.90;;;;;;5028435;28;21001;-71
2023/04/03 08:40:17;;;;;;;3.77;2.53;;;7.20;99.90;;;;;;5027309;28;20454;-71
2023/04/03 08:42:54;;;;;;;3.13;2.83;;;7.10;99.90;;;;;;5028321;28;20496;-71
2023/04/03 08:45:27;;;;;;;4.10;3.10;;;7.10;99.90;;;;;;5027547;28;20506;-71
2023/04/03 08:48:00;;;;;;;3.07;2.80;;;7.10;99.90;;;;;;5028521;28;20442;-70
2023/04/03 08:50:32;;;;;;;6.37;2.70;;;7.20;99.90;;;;;;5028302;28;20454;-71
2023/04/03 08:53:01;;;;;;;4.50;3.13;;;7.30;99.90;;;;;;5027354;28;20454;-71
2023/04/03 08:55:32;;;;;;;6.13;3.00;;;7.30;99.90;;;;;;5027812;28;20498;-70
2023/04/03 08:58:02;;;;;;;7.63;3.60;;;7.40;99.90;;;;;;5025993;28;20554;-71
2023/04/03 09:00:33;;;;;;;4.33;2.50;;;7.50;99.90;;;;;;5026731;28;20457;-71
2023/04/03 09:03:00;;;;;;;3.73;3.00;;;7.50;99.90;;;;;;5028211;28;20490;-71
2023/04/03 09:05:40;;;;;;;7.20;3.90;;;7.50;99.90;;;;;;5027036;28;20496;-70
2023/04/03 09:08:15;;;;;;;6.03;3.03;;;7.50;99.90;;;;;;5027690;28;21721;-71
2023/04/03 09:10:42;;;;;;;5.80;3.20;;;7.50;99.90;;;;;;5028196;28;20466;-71
2023/04/03 09:13:19;;;;;;;7.60;3.47;;;7.80;99.90;;;;;;5027809;28;20453;-71
2023/04/03 09:15:45;;;;;;;6.33;2.90;;;8.00;99.90;;;;;;5028139;28;20489;-71
2023/04/03 09:18:17;;;;;;;4.63;2.90;;;8.00;99.90;;;;;;5027813;28;20860;-71
2023/04/03 09:20:50;;;;;;;4.07;2.90;;;7.80;99.90;;;;;;5027503;28;21354;-72
2023/04/03 09:23:24;;;;;;;5.30;3.03;;;7.90;99.90;;;;;;5026203;28;20582;-71
2023/04/03 09:25:54;;;;;;;3.33;2.73;;;8.00;99.90;;;;;;5028046;28;20556;-71
2023/04/03 09:28:22;;;;;;;6.07;3.20;;;7.90;99.90;;;;;;5027034;28;20463;-71
2023/04/03 09:30:48;;;;;;;4.90;3.30;;;7.90;99.90;;;;;;5026283;28;20845;-70
2023/04/03 09:33:16;;;;;;;5.07;3.03;;;8.00;99.90;;;;;;5026040;28;21108;-70
2023/04/03 09:35:43;;;;;;;5.13;2.90;;;8.40;99.90;;;;;;5026647;28;20519;-70
2023/04/03 09:38:19;;;;;;;5.50;2.93;;;8.50;99.90;;;;;;5025047;28;20513;-71
2023/04/03 09:40:48;;;;;;;5.13;3.00;;;8.60;99.90;;;;;;5026399;28;20511;-71
2023/04/03 09:43:28;;;;;;;5.07;2.97;;;8.70;99.90;;;;;;5027099;28;20514;-71
2023/04/03 09:45:56;;;;;;;3.70;3.00;;;8.80;99.90;;;;;;5026133;28;21146;-72
2023/04/03 09:48:24;;;;;;;4.23;3.13;;;8.90;99.90;;;;;;5027608;28;20809;-72
2023/04/03 09:50:58;;;;;;;4.90;3.00;;;9.10;99.90;;;;;;5026913;28;20455;-72
2023/04/03 09:53:32;;;;;;;5.10;2.80;;;8.80;99.90;;;;;;5026682;28;20449;-72
2023/04/03 09:55:59;;;;;;;3.77;3.10;;;8.80;99.90;;;;;;5027187;28;20475;-72
2023/04/03 09:58:30;;;;;;;11.70;3.17;;;8.70;99.90;;;;;;5026205;28;20467;-72
2023/04/03 10:00:59;;;;;;;3.80;2.60;;;8.80;99.90;;;;;;5026540;28;20458;-72
2023/04/03 10:03:29;;;;;;;4.07;2.83;;;8.90;99.90;;;;;;5025827;28;20553;-72
2023/04/03 10:05:57;;;;;;;3.23;2.60;;;9.10;99.90;;;;;;5026278;28;21354;-71
2023/04/03 10:08:27;;;;;;;5.23;2.73;;;9.00;99.90;;;;;;5023367;28;21427;-72
2023/04/03 10:11:10;;;;;;;3.57;2.80;;;9.10;99.90;;;;;;5026880;28;20523;-72
2023/04/03 10:13:51;;;;;;;3.63;2.93;;;9.30;99.90;;;;;;5026442;28;20472;-72
2023/04/03 10:16:22;;;;;;;4.63;3.30;;;9.30;99.90;;;;;;5025152;28;20491;-72
2023/04/03 10:18:56;;;;;;;3.17;2.40;;;9.10;99.90;;;;;;5025413;28;20518;-71
2023/04/03 10:21:35;;;;;;;3.27;2.97;;;9.10;99.90;;;;;;5026533;28;20454;-72
2023/04/03 10:24:09;;;;;;;11.03;3.00;;;9.00;99.90;;;;;;5026610;28;20489;-71
2023/04/03 10:26:45;;;;;;;5.67;3.10;;;9.10;99.90;;;;;;5026917;28;20529;-71
2023/04/03 10:29:26;;;;;;;5.30;2.60;;;9.40;99.90;;;;;;5029643;28;20473;-72
2023/04/03 10:32:00;;;;;;;4.00;2.83;;;9.60;99.90;;;;;;5027780;28;20452;-71
2023/04/03 10:34:31;;;;;;;2.70;2.50;;;9.70;99.90;;;;;;5027018;28;20472;-72
2023/04/03 10:37:05;;;;;;;3.07;2.70;;;10.10;99.90;;;;;;5028696;28;20495;-70
2023/04/03 10:39:40;;;;;;;6.03;3.33;;;10.30;99.90;;;;;;5029253;28;21007;-72
2023/04/03 10:42:14;;;;;;;6.20;3.23;;;10.10;99.90;;;;;;5029226;28;20449;-72
2023/04/03 10:44:57;;;;;;;8.90;3.00;;;10.10;99.90;;;;;;5027904;28;20500;-72
2023/04/03 10:47:32;;;;;;;3.43;2.93;;;9.90;99.90;;;;;;5027021;28;20452;-72
2023/04/03 10:50:08;;;;;;;6.83;3.50;;;10.10;99.90;;;;;;5026323;28;20885;-72
2023/04/03 10:52:43;;;;;;;5.23;3.07;;;9.80;99.90;;;;;;5028677;28;20456;-71
2023/04/03 10:55:25;;;;;;;5.20;3.30;;;9.70;99.90;;;;;;5028540;28;20558;-73
2023/04/03 10:57:53;;;;;;;4.93;3.10;;;9.50;99.90;;;;;;5028591;28;20472;-72
2023/04/03 11:00:27;;;;;;;3.43;3.13;;;9.50;99.90;;;;;;5027459;28;20522;-73
2023/04/03 11:02:57;;;;;;;3.33;2.77;;;9.40;99.90;;;;;;5027065;28;20456;-72
2023/04/03 11:05:35;;;;;;;4.03;2.90;;;9.60;99.90;;;;;;5027337;28;20524;-72
2023/04/03 11:08:06;;;;;;;3.70;2.90;;;9.70;99.90;;;;;;5028045;28;20448;-73
2023/04/03 11:10:42;;;;;;;2.70;2.30;;;9.90;99.90;;;;;;5028201;28;20939;-73
2023/04/03 11:13:14;;;;;;;2.87;2.67;;;10.10;99.90;;;;;;5027470;28;20868;-71
2023/04/03 11:15:44;;;;;;;3.43;2.70;;;10.40;99.90;;;;;;5026296;28;20452;-72
2023/04/03 11:18:15;;;;;;;6.93;3.17;;;10.10;99.90;;;;;;5028605;28;20473;-72
2023/04/03 11:20:45;;;;;;;3.83;3.03;;;9.80;99.90;;;;;;5029166;28;20596;-72
2023/04/03 11:23:22;;;;;;;5.07;2.67;;;9.80;99.90;;;;;;5026982;28;20489;-72
2023/04/03 11:25:53;;;;;;;4.90;2.90;;;10.10;99.90;;;;;;5027573;28;20509;-71
2023/04/03 11:28:20;;;;;;;5.00;3.20;;;10.40;99.90;;;;;;5026173;28;20551;-69
2023/04/03 11:30:53;;;;;;;3.27;2.80;;;10.60;99.90;;;;;;5026096;28;20457;-71
2023/04/03 11:33:31;;;;;;;3.03;2.30;;;10.80;99.90;;;;;;5027224;28;20468;-71
2023/04/03 11:36:01;;;;;;;3.90;2.50;;;11.00;99.90;;;;;;5027932;28;20486;-72
2023/04/03 11:38:34;;;;;;;5.80;3.10;;;10.90;99.90;;;;;;5027327;28;20460;-72
2023/04/03 11:41:02;;;;;;;5.53;2.50;;;11.20;99.90;;;;;;5028036;28;20482;-72
2023/04/03 11:43:31;;;;;;;2.90;2.47;;;11.40;99.90;;;;;;5025907;28;20596;-72
2023/04/03 11:46:01;;;;;;;3.83;3.00;;;11.40;99.90;;;;;;5028316;28;20595;-72
2023/04/03 11:48:50;;;;;;;3.83;2.07;;;11.50;99.90;;;;;;5028515;28;20493;-73
2023/04/03 11:51:43;;;;;;;2.60;2.40;;;11.50;99.90;;;;;;5027610;28;20470;-73
2023/04/03 11:54:48;;;;;;;3.10;2.33;;;11.40;99.90;;;;;;5027216;28;20538;-73
2023/04/03 11:57:47;;;;;;;4.37;2.17;;;11.40;99.90;;;;;;5025985;28;20456;-72
2023/04/03 12:00:52;;;;;;;5.10;2.43;;;11.50;99.90;;;;;;5026513;28;20958;-72
2023/04/03 12:04:08;;;;;;;3.40;2.50;;;11.20;99.90;;;;;;5025874;28;20453;-72
2023/04/03 12:07:20;;;;;;;2.73;2.30;;;10.90;99.90;;;;;;5027670;28;21072;-72
2023/04/03 12:10:00;;;;;;;4.80;2.70;;;11.00;99.90;;;;;;5028083;28;20864;-71
2023/04/03 12:12:33;;;;;;;3.87;2.20;;;11.10;99.90;;;;;;5025998;28;20449;-72
2023/04/03 12:15:41;;;;;;;3.90;2.63;;;11.00;99.90;;;;;;5026760;28;20496;-72
2023/04/03 12:18:50;;;;;;;3.53;2.30;;;11.20;99.90;;;;;;5020529;28;20462;-72
2023/04/03 12:21:19;;;;;;;7.57;3.27;;;11.20;99.90;;;;;;5026346;28;20464;-72
2023/04/03 12:24:24;;;;;;;3.53;2.57;;;11.30;99.90;;;;;;5023152;28;21201;-72
2023/04/03 12:27:02;;;;;;;2.57;2.30;;;11.40;99.90;;;;;;5024088;28;20557;-72
2023/04/03 12:29:35;;;;;;;3.27;2.10;;;10.70;99.60;;;;;;5024738;28;20461;-72
2023/04/03 12:32:12;;;;;;;3.80;2.10;;;10.60;99.90;;;;;;5025812;28;20504;-72
2023/04/03 12:34:59;;;;;;;2.03;1.87;;;10.60;99.90;;;;;;5025427;28;20495;-72
2023/04/03 12:37:47;;;;;;;2.47;2.27;;;10.60;99.90;;;;;;5025208;28;20462;-72
2023/04/03 12:40:25;;;;;;;2.20;2.00;;;10.50;99.90;;;;;;5026199;28;20447;-72
2023/04/03 12:43:10;;;;;;;6.70;2.30;;;10.60;99.90;;;;;;5027608;28;20458;-72
2023/04/03 12:45:45;;;;;;;3.73;2.40;;;10.70;99.90;;;;;;5025645;28;20509;-72
2023/04/03 12:48:15;;;;;;;2.87;2.20;;;11.00;99.90;;;;;;5023623;28;20470;-72
2023/04/03 12:50:44;;;;;;;2.30;1.90;;;11.40;99.90;;;;;;5025266;28;20874;-72
2023/04/03 12:53:18;;;;;;;2.53;2.20;;;11.30;98.30;;;;;;5024572;28;20458;-72
2023/04/03 12:55:44;;;;;;;2.90;1.80;;;11.50;98.70;;;;;;5026436;28;20477;-72
2023/04/03 12:58:16;;;;;;;3.10;1.90;;;11.40;96.90;;;;;;5028089;28;20462;-71
2023/04/03 13:00:43;;;;;;;9.50;2.47;;;11.20;98.20;;;;;;5023276;28;20818;-71
2023/04/03 13:03:23;;;;;;;3.63;2.10;;;11.10;98.40;;;;;;5024712;28;20469;-71
2023/04/03 13:05:50;;;;;;;2.03;1.80;;;11.20;98.10;;;;;;5023870;28;21031;-71
2023/04/03 13:08:22;;;;;;;2.33;1.93;;;11.10;98.80;;;;;;5025121;28;20455;-71
2023/04/03 13:10:55;;;;;;;3.33;1.90;;;11.10;98.70;;;;;;5027245;28;20479;-71